sensor_id;sensor_type;location;lat;lon;timestamp;P1;durP1;ratioP1;P2;durP2;ratioP2
57023;SDS011;42916;54.346;18.562;2023-04-28T00:01:11;6.00;;;2.50;;
57023;SDS011;42916;54.346;18.562;2023-04-28T00:03:38;6.60;;;2.90;;
57023;SDS011;42916;54.346;18.562;2023-04-28T00:06:04;7.00;;;2.50;;
57023;SDS011;42916;54.346;18.562;2023-04-28T00:08:31;6.00;;;2.40;;
57023;SDS011;42916;54.346;18.562;2023-04-28T00:10:58;5.00;;;2.20;;
57023;SDS011;42916;54.346;18.562;2023-04-28T00:13:26;8.60;;;3.00;;
57023;SDS011;42916;54.346;18.562;2023-04-28T00:15:53;8.30;;;2.20;;
57023;SDS011;42916;54.346;18.562;2023-04-28T00:18:20;5.20;;;1.90;;
57023;SDS011;42916;54.346;18.562;2023-04-28T00:20:47;5.30;;;2.20;;
57023;SDS011;42916;54.346;18.562;2023-04-28T00:23:14;6.00;;;2.20;;
57023;SDS011;42916;54.346;18.562;2023-04-28T00:25:41;5.70;;;2.10;;
57023;SDS011;42916;54.346;18.562;2023-04-28T00:28:07;4.90;;;2.10;;
57023;SDS011;42916;54.346;18.562;2023-04-28T00:30:34;3.60;;;1.90;;
57023;SDS011;42916;54.346;18.562;2023-04-28T00:33:01;3.70;;;1.90;;
57023;SDS011;42916;54.346;18.562;2023-04-28T00:35:28;4.10;;;2.10;;
57023;SDS011;42916;54.346;18.562;2023-04-28T00:37:55;8.20;;;2.40;;
57023;SDS011;42916;54.346;18.562;2023-04-28T00:40:22;7.30;;;2.30;;
57023;SDS011;42916;54.346;18.562;2023-04-28T00:42:48;5.80;;;2.00;;
57023;SDS011;42916;54.346;18.562;2023-04-28T00:45:15;3.40;;;2.10;;
57023;SDS011;42916;54.346;18.562;2023-04-28T00:47:42;6.40;;;2.10;;
57023;SDS011;42916;54.346;18.562;2023-04-28T00:50:08;4.80;;;2.40;;
57023;SDS011;42916;54.346;18.562;2023-04-28T00:52:36;4.10;;;2.00;;
57023;SDS011;42916;54.346;18.562;2023-04-28T00:55:04;4.30;;;2.20;;
57023;SDS011;42916;54.346;18.562;2023-04-28T00:57:31;4.10;;;2.30;;
57023;SDS011;42916;54.346;18.562;2023-04-28T00:59:59;9.40;;;2.90;;
57023;SDS011;42916;54.346;18.562;2023-04-28T01:02:26;7.40;;;2.80;;
57023;SDS011;42916;54.346;18.562;2023-04-28T01:04:55;5.60;;;2.70;;
57023;SDS011;42916;54.346;18.562;2023-04-28T01:07:25;8.00;;;2.90;;
57023;SDS011;42916;54.346;18.562;2023-04-28T01:09:52;7.30;;;2.60;;
57023;SDS011;42916;54.346;18.562;2023-04-28T01:12:23;6.80;;;2.80;;
57023;SDS011;42916;54.346;18.562;2023-04-28T01:14:52;7.40;;;2.60;;
57023;SDS011;42916;54.346;18.562;2023-04-28T01:17:19;7.30;;;2.80;;
57023;SDS011;42916;54.346;18.562;2023-04-28T01:19:46;3.60;;;2.20;;
57023;SDS011;42916;54.346;18.562;2023-04-28T01:22:13;6.70;;;2.30;;
57023;SDS011;42916;54.346;18.562;2023-04-28T01:24:42;5.10;;;2.10;;
57023;SDS011;42916;54.346;18.562;2023-04-28T01:27:10;5.90;;;1.90;;
57023;SDS011;42916;54.346;18.562;2023-04-28T01:29:38;5.80;;;2.30;;
57023;SDS011;42916;54.346;18.562;2023-04-28T01:32:05;4.40;;;2.70;;
57023;SDS011;42916;54.346;18.562;2023-04-28T01:34:32;4.30;;;1.90;;
57023;SDS011;42916;54.346;18.562;2023-04-28T01:36:59;4.90;;;1.80;;
57023;SDS011;42916;54.346;18.562;2023-04-28T01:39:28;4.20;;;1.90;;
57023;SDS011;42916;54.346;18.562;2023-04-28T01:41:55;3.00;;;1.90;;
57023;SDS011;42916;54.346;18.562;2023-04-28T01:44:22;5.40;;;2.20;;
57023;SDS011;42916;54.346;18.562;2023-04-28T01:46:49;6.10;;;2.50;;
57023;SDS011;42916;54.346;18.562;2023-04-28T01:49:16;5.30;;;2.10;;
57023;SDS011;42916;54.346;18.562;2023-04-28T01:51:42;6.30;;;2.10;;
57023;SDS011;42916;54.346;18.562;2023-04-28T01:54:09;6.90;;;2.60;;
57023;SDS011;42916;54.346;18.562;2023-04-28T01:56:36;4.20;;;1.80;;
57023;SDS011;42916;54.346;18.562;2023-04-28T01:59:03;6.70;;;2.60;;
57023;SDS011;42916;54.346;18.562;2023-04-28T02:01:30;5.50;;;1.90;;
57023;SDS011;42916;54.346;18.562;2023-04-28T02:03:57;7.50;;;2.30;;
57023;SDS011;42916;54.346;18.562;2023-04-28T02:06:23;6.10;;;2.30;;
57023;SDS011;42916;54.346;18.562;2023-04-28T02:08:50;4.80;;;2.30;;
57023;SDS011;42916;54.346;18.562;2023-04-28T02:11:17;4.20;;;2.50;;
57023;SDS011;42916;54.346;18.562;2023-04-28T02:13:44;6.70;;;2.80;;
57023;SDS011;42916;54.346;18.562;2023-04-28T02:16:11;6.30;;;2.40;;
57023;SDS011;42916;54.346;18.562;2023-04-28T02:18:38;6.00;;;2.60;;
57023;SDS011;42916;54.346;18.562;2023-04-28T02:21:08;7.30;;;2.70;;
57023;SDS011;42916;54.346;18.562;2023-04-28T02:23:37;5.70;;;2.70;;
57023;SDS011;42916;54.346;18.562;2023-04-28T02:26:05;5.80;;;2.50;;
57023;SDS011;42916;54.346;18.562;2023-04-28T02:28:32;6.60;;;2.60;;
57023;SDS011;42916;54.346;18.562;2023-04-28T02:31:03;7.60;;;2.40;;
57023;SDS011;42916;54.346;18.562;2023-04-28T02:33:34;4.40;;;2.20;;
57023;SDS011;42916;54.346;18.562;2023-04-28T02:36:02;6.10;;;2.10;;
57023;SDS011;42916;54.346;18.562;2023-04-28T02:38:30;5.00;;;2.50;;
57023;SDS011;42916;54.346;18.562;2023-04-28T02:40:57;5.70;;;2.30;;
57023;SDS011;42916;54.346;18.562;2023-04-28T02:43:25;4.00;;;2.50;;
57023;SDS011;42916;54.346;18.562;2023-04-28T02:45:53;6.10;;;2.10;;
57023;SDS011;42916;54.346;18.562;2023-04-28T02:48:20;4.50;;;2.50;;
57023;SDS011;42916;54.346;18.562;2023-04-28T02:50:47;6.60;;;2.20;;
57023;SDS011;42916;54.346;18.562;2023-04-28T02:53:14;2.60;;;1.60;;
57023;SDS011;42916;54.346;18.562;2023-04-28T02:55:41;5.30;;;2.30;;
57023;SDS011;42916;54.346;18.562;2023-04-28T02:58:08;7.00;;;2.30;;
57023;SDS011;42916;54.346;18.562;2023-04-28T03:00:35;5.70;;;2.30;;
57023;SDS011;42916;54.346;18.562;2023-04-28T03:03:02;9.90;;;2.30;;
57023;SDS011;42916;54.346;18.562;2023-04-28T03:05:29;7.40;;;2.60;;
57023;SDS011;42916;54.346;18.562;2023-04-28T03:07:55;4.80;;;2.20;;
57023;SDS011;42916;54.346;18.562;2023-04-28T03:10:23;5.40;;;2.20;;
57023;SDS011;42916;54.346;18.562;2023-04-28T03:12:50;6.10;;;2.60;;
57023;SDS011;42916;54.346;18.562;2023-04-28T03:15:17;7.80;;;2.20;;
57023;SDS011;42916;54.346;18.562;2023-04-28T03:17:45;5.70;;;2.10;;
57023;SDS011;42916;54.346;18.562;2023-04-28T03:20:12;4.80;;;2.50;;
57023;SDS011;42916;54.346;18.562;2023-04-28T03:22:39;7.10;;;2.40;;
57023;SDS011;42916;54.346;18.562;2023-04-28T03:25:06;8.50;;;3.00;;
57023;SDS011;42916;54.346;18.562;2023-04-28T03:27:36;5.50;;;2.60;;
57023;SDS011;42916;54.346;18.562;2023-04-28T03:30:03;7.20;;;3.00;;
57023;SDS011;42916;54.346;18.562;2023-04-28T03:32:31;6.00;;;2.90;;
57023;SDS011;42916;54.346;18.562;2023-04-28T03:34:58;4.90;;;2.40;;
57023;SDS011;42916;54.346;18.562;2023-04-28T03:37:25;5.60;;;2.80;;
57023;SDS011;42916;54.346;18.562;2023-04-28T03:39:51;4.80;;;2.10;;
57023;SDS011;42916;54.346;18.562;2023-04-28T03:42:18;7.00;;;2.90;;
57023;SDS011;42916;54.346;18.562;2023-04-28T03:45:03;3.60;;;2.20;;
57023;SDS011;42916;54.346;18.562;2023-04-28T03:47:30;6.90;;;2.80;;
57023;SDS011;42916;54.346;18.562;2023-04-28T03:49:57;5.70;;;2.50;;
57023;SDS011;42916;54.346;18.562;2023-04-28T03:52:24;9.20;;;3.20;;
57023;SDS011;42916;54.346;18.562;2023-04-28T03:54:51;11.90;;;3.60;;
57023;SDS011;42916;54.346;18.562;2023-04-28T03:57:18;5.30;;;2.70;;
57023;SDS011;42916;54.346;18.562;2023-04-28T03:59:45;9.70;;;2.70;;
57023;SDS011;42916;54.346;18.562;2023-04-28T04:02:12;6.20;;;2.70;;
57023;SDS011;42916;54.346;18.562;2023-04-28T04:04:39;5.80;;;2.90;;
57023;SDS011;42916;54.346;18.562;2023-04-28T04:07:06;9.90;;;3.50;;
57023;SDS011;42916;54.346;18.562;2023-04-28T04:09:32;6.00;;;3.00;;
57023;SDS011;42916;54.346;18.562;2023-04-28T04:11:59;9.10;;;2.60;;
57023;SDS011;42916;54.346;18.562;2023-04-28T04:14:27;6.10;;;2.60;;
57023;SDS011;42916;54.346;18.562;2023-04-28T04:16:54;5.30;;;2.30;;
57023;SDS011;42916;54.346;18.562;2023-04-28T04:19:21;5.60;;;2.90;;
57023;SDS011;42916;54.346;18.562;2023-04-28T04:21:52;7.40;;;3.20;;
57023;SDS011;42916;54.346;18.562;2023-04-28T04:24:19;9.40;;;3.30;;
57023;SDS011;42916;54.346;18.562;2023-04-28T04:26:46;8.40;;;3.70;;
57023;SDS011;42916;54.346;18.562;2023-04-28T04:29:39;8.10;;;3.60;;
57023;SDS011;42916;54.346;18.562;2023-04-28T04:32:11;7.60;;;3.30;;
57023;SDS011;42916;54.346;18.562;2023-04-28T04:34:39;7.40;;;2.80;;
57023;SDS011;42916;54.346;18.562;2023-04-28T04:37:05;8.80;;;3.20;;
57023;SDS011;42916;54.346;18.562;2023-04-28T04:39:32;5.50;;;2.50;;
57023;SDS011;42916;54.346;18.562;2023-04-28T04:42:00;8.00;;;2.40;;
57023;SDS011;42916;54.346;18.562;2023-04-28T04:44:43;5.50;;;2.60;;
57023;SDS011;42916;54.346;18.562;2023-04-28T04:47:16;6.80;;;2.30;;
57023;SDS011;42916;54.346;18.562;2023-04-28T04:49:46;5.80;;;2.60;;
57023;SDS011;42916;54.346;18.562;2023-04-28T04:52:13;7.80;;;3.30;;
57023;SDS011;42916;54.346;18.562;2023-04-28T04:54:40;5.90;;;2.90;;
57023;SDS011;42916;54.346;18.562;2023-04-28T04:57:10;7.60;;;2.70;;
57023;SDS011;42916;54.346;18.562;2023-04-28T05:00:03;7.70;;;2.70;;
57023;SDS011;42916;54.346;18.562;2023-04-28T05:02:33;5.90;;;2.50;;
57023;SDS011;42916;54.346;18.562;2023-04-28T05:05:00;3.60;;;2.50;;
57023;SDS011;42916;54.346;18.562;2023-04-28T05:07:27;4.50;;;2.50;;
57023;SDS011;42916;54.346;18.562;2023-04-28T05:09:54;7.60;;;2.80;;
57023;SDS011;42916;54.346;18.562;2023-04-28T05:12:21;8.10;;;3.10;;
57023;SDS011;42916;54.346;18.562;2023-04-28T05:14:48;5.70;;;2.90;;
57023;SDS011;42916;54.346;18.562;2023-04-28T05:17:15;7.70;;;2.80;;
57023;SDS011;42916;54.346;18.562;2023-04-28T05:19:42;6.40;;;2.90;;
57023;SDS011;42916;54.346;18.562;2023-04-28T05:22:10;7.00;;;2.60;;
57023;SDS011;42916;54.346;18.562;2023-04-28T05:24:37;6.20;;;3.00;;
57023;SDS011;42916;54.346;18.562;2023-04-28T05:27:04;7.50;;;2.90;;
57023;SDS011;42916;54.346;18.562;2023-04-28T05:29:31;8.30;;;3.30;;
57023;SDS011;42916;54.346;18.562;2023-04-28T05:31:58;7.50;;;3.10;;
57023;SDS011;42916;54.346;18.562;2023-04-28T05:34:25;6.90;;;2.70;;
57023;SDS011;42916;54.346;18.562;2023-04-28T05:36:52;5.70;;;2.80;;
57023;SDS011;42916;54.346;18.562;2023-04-28T05:39:23;7.80;;;3.10;;
57023;SDS011;42916;54.346;18.562;2023-04-28T05:41:50;5.70;;;3.10;;
57023;SDS011;42916;54.346;18.562;2023-04-28T05:44:17;6.70;;;2.80;;
57023;SDS011;42916;54.346;18.562;2023-04-28T05:46:45;8.80;;;3.80;;
57023;SDS011;42916;54.346;18.562;2023-04-28T05:49:11;9.40;;;3.40;;
57023;SDS011;42916;54.346;18.562;2023-04-28T05:51:39;7.20;;;3.10;;
57023;SDS011;42916;54.346;18.562;2023-04-28T05:54:05;10.60;;;3.10;;
57023;SDS011;42916;54.346;18.562;2023-04-28T05:56:36;10.60;;;3.40;;
57023;SDS011;42916;54.346;18.562;2023-04-28T05:59:03;6.70;;;3.00;;
57023;SDS011;42916;54.346;18.562;2023-04-28T06:01:30;6.10;;;3.40;;
57023;SDS011;42916;54.346;18.562;2023-04-28T06:03:57;6.00;;;2.80;;
57023;SDS011;42916;54.346;18.562;2023-04-28T06:06:25;8.10;;;3.40;;
57023;SDS011;42916;54.346;18.562;2023-04-28T06:08:53;4.10;;;2.80;;
57023;SDS011;42916;54.346;18.562;2023-04-28T06:11:20;9.60;;;2.70;;
57023;SDS011;42916;54.346;18.562;2023-04-28T06:13:49;5.40;;;2.40;;
57023;SDS011;42916;54.346;18.562;2023-04-28T06:16:18;7.10;;;2.80;;
57023;SDS011;42916;54.346;18.562;2023-04-28T06:18:45;5.60;;;2.50;;
57023;SDS011;42916;54.346;18.562;2023-04-28T06:21:12;6.80;;;2.90;;
57023;SDS011;42916;54.346;18.562;2023-04-28T06:23:39;9.60;;;2.40;;
57023;SDS011;42916;54.346;18.562;2023-04-28T06:26:07;4.70;;;2.40;;
57023;SDS011;42916;54.346;18.562;2023-04-28T06:28:38;6.90;;;2.40;;
57023;SDS011;42916;54.346;18.562;2023-04-28T06:31:07;9.50;;;2.70;;
57023;SDS011;42916;54.346;18.562;2023-04-28T06:33:34;3.50;;;2.10;;
57023;SDS011;42916;54.346;18.562;2023-04-28T06:36:02;6.40;;;2.50;;
57023;SDS011;42916;54.346;18.562;2023-04-28T06:38:29;8.00;;;2.20;;
57023;SDS011;42916;54.346;18.562;2023-04-28T06:40:55;4.30;;;2.20;;
57023;SDS011;42916;54.346;18.562;2023-04-28T06:43:23;6.70;;;2.20;;
57023;SDS011;42916;54.346;18.562;2023-04-28T06:45:58;4.20;;;1.70;;
57023;SDS011;42916;54.346;18.562;2023-04-28T06:48:26;6.90;;;2.00;;
57023;SDS011;42916;54.346;18.562;2023-04-28T06:50:53;4.40;;;1.90;;
57023;SDS011;42916;54.346;18.562;2023-04-28T06:53:22;6.00;;;2.20;;
57023;SDS011;42916;54.346;18.562;2023-04-28T06:55:48;5.40;;;1.90;;
57023;SDS011;42916;54.346;18.562;2023-04-28T06:58:15;5.70;;;2.30;;
57023;SDS011;42916;54.346;18.562;2023-04-28T07:00:42;7.00;;;2.10;;
57023;SDS011;42916;54.346;18.562;2023-04-28T07:03:09;5.80;;;2.70;;
57023;SDS011;42916;54.346;18.562;2023-04-28T07:05:36;6.70;;;2.20;;
57023;SDS011;42916;54.346;18.562;2023-04-28T07:08:03;5.50;;;2.00;;
57023;SDS011;42916;54.346;18.562;2023-04-28T07:10:30;6.40;;;2.00;;
57023;SDS011;42916;54.346;18.562;2023-04-28T07:12:56;2.60;;;1.70;;
57023;SDS011;42916;54.346;18.562;2023-04-28T07:15:24;6.10;;;1.90;;
57023;SDS011;42916;54.346;18.562;2023-04-28T07:17:51;5.80;;;2.00;;
57023;SDS011;42916;54.346;18.562;2023-04-28T07:20:18;6.60;;;1.90;;
57023;SDS011;42916;54.346;18.562;2023-04-28T07:22:45;8.80;;;1.80;;
57023;SDS011;42916;54.346;18.562;2023-04-28T07:25:11;5.40;;;2.10;;
57023;SDS011;42916;54.346;18.562;2023-04-28T07:27:38;5.50;;;1.90;;
57023;SDS011;42916;54.346;18.562;2023-04-28T07:30:05;7.00;;;2.30;;
57023;SDS011;42916;54.346;18.562;2023-04-28T07:32:33;4.60;;;2.10;;
57023;SDS011;42916;54.346;18.562;2023-04-28T07:34:59;3.60;;;1.80;;
57023;SDS011;42916;54.346;18.562;2023-04-28T07:37:27;5.10;;;1.70;;
57023;SDS011;42916;54.346;18.562;2023-04-28T07:39:55;4.10;;;1.80;;
57023;SDS011;42916;54.346;18.562;2023-04-28T07:42:22;4.70;;;1.90;;
57023;SDS011;42916;54.346;18.562;2023-04-28T07:44:48;4.90;;;1.90;;
57023;SDS011;42916;54.346;18.562;2023-04-28T07:47:15;4.70;;;1.90;;
57023;SDS011;42916;54.346;18.562;2023-04-28T07:49:42;5.00;;;2.00;;
57023;SDS011;42916;54.346;18.562;2023-04-28T07:52:09;5.50;;;1.90;;
57023;SDS011;42916;54.346;18.562;2023-04-28T07:54:35;6.90;;;2.00;;
57023;SDS011;42916;54.346;18.562;2023-04-28T07:57:02;4.20;;;1.90;;
57023;SDS011;42916;54.346;18.562;2023-04-28T07:59:34;3.90;;;2.00;;
57023;SDS011;42916;54.346;18.562;2023-04-28T08:02:01;4.10;;;1.70;;
57023;SDS011;42916;54.346;18.562;2023-04-28T08:04:27;5.60;;;1.60;;
57023;SDS011;42916;54.346;18.562;2023-04-28T08:06:56;4.80;;;1.40;;
57023;SDS011;42916;54.346;18.562;2023-04-28T08:09:23;6.60;;;1.80;;
57023;SDS011;42916;54.346;18.562;2023-04-28T08:11:50;3.10;;;1.80;;
57023;SDS011;42916;54.346;18.562;2023-04-28T08:14:16;4.90;;;1.70;;
57023;SDS011;42916;54.346;18.562;2023-04-28T08:16:43;4.30;;;1.60;;
57023;SDS011;42916;54.346;18.562;2023-04-28T08:19:11;3.80;;;1.40;;
57023;SDS011;42916;54.346;18.562;2023-04-28T08:21:38;3.90;;;1.20;;
57023;SDS011;42916;54.346;18.562;2023-04-28T08:24:05;5.30;;;1.70;;
57023;SDS011;42916;54.346;18.562;2023-04-28T08:26:33;6.20;;;1.40;;
57023;SDS011;42916;54.346;18.562;2023-04-28T08:29:00;2.20;;;1.50;;
57023;SDS011;42916;54.346;18.562;2023-04-28T08:31:27;6.70;;;1.50;;
57023;SDS011;42916;54.346;18.562;2023-04-28T08:33:54;3.70;;;1.50;;
57023;SDS011;42916;54.346;18.562;2023-04-28T08:36:20;2.90;;;1.40;;
57023;SDS011;42916;54.346;18.562;2023-04-28T08:38:49;4.40;;;1.20;;
57023;SDS011;42916;54.346;18.562;2023-04-28T08:41:15;4.00;;;1.40;;
57023;SDS011;42916;54.346;18.562;2023-04-28T08:43:43;4.10;;;1.60;;
57023;SDS011;42916;54.346;18.562;2023-04-28T08:46:11;5.50;;;1.40;;
57023;SDS011;42916;54.346;18.562;2023-04-28T08:48:41;3.80;;;1.50;;
57023;SDS011;42916;54.346;18.562;2023-04-28T08:51:14;4.40;;;1.50;;
57023;SDS011;42916;54.346;18.562;2023-04-28T08:53:48;2.70;;;1.20;;
57023;SDS011;42916;54.346;18.562;2023-04-28T08:56:16;3.50;;;1.30;;
57023;SDS011;42916;54.346;18.562;2023-04-28T08:58:45;1.90;;;1.30;;
57023;SDS011;42916;54.346;18.562;2023-04-28T09:01:12;2.10;;;1.50;;
57023;SDS011;42916;54.346;18.562;2023-04-28T09:03:39;3.10;;;1.20;;
57023;SDS011;42916;54.346;18.562;2023-04-28T09:06:06;3.00;;;1.50;;
57023;SDS011;42916;54.346;18.562;2023-04-28T09:08:33;2.10;;;1.40;;
57023;SDS011;42916;54.346;18.562;2023-04-28T09:11:09;3.50;;;1.60;;
57023;SDS011;42916;54.346;18.562;2023-04-28T09:13:39;5.10;;;1.50;;
57023;SDS011;42916;54.346;18.562;2023-04-28T09:16:06;1.90;;;1.30;;
57023;SDS011;42916;54.346;18.562;2023-04-28T09:18:33;2.60;;;1.50;;
57023;SDS011;42916;54.346;18.562;2023-04-28T09:21:09;5.00;;;1.70;;
57023;SDS011;42916;54.346;18.562;2023-04-28T09:23:46;5.00;;;1.70;;
57023;SDS011;42916;54.346;18.562;2023-04-28T09:26:14;4.80;;;1.80;;
57023;SDS011;42916;54.346;18.562;2023-04-28T09:28:41;2.80;;;1.80;;
57023;SDS011;42916;54.346;18.562;2023-04-28T09:31:23;5.90;;;1.90;;
57023;SDS011;42916;54.346;18.562;2023-04-28T09:33:56;3.70;;;2.50;;
57023;SDS011;42916;54.346;18.562;2023-04-28T09:36:27;2.90;;;1.80;;
57023;SDS011;42916;54.346;18.562;2023-04-28T09:38:56;3.50;;;1.60;;
57023;SDS011;42916;54.346;18.562;2023-04-28T09:41:37;8.00;;;2.00;;
57023;SDS011;42916;54.346;18.562;2023-04-28T09:44:09;3.90;;;1.80;;
57023;SDS011;42916;54.346;18.562;2023-04-28T09:46:44;3.70;;;1.90;;
57023;SDS011;42916;54.346;18.562;2023-04-28T09:49:11;3.10;;;1.80;;
57023;SDS011;42916;54.346;18.562;2023-04-28T09:51:39;2.60;;;1.80;;
57023;SDS011;42916;54.346;18.562;2023-04-28T09:54:06;4.60;;;2.30;;
57023;SDS011;42916;54.346;18.562;2023-04-28T09:56:34;2.90;;;1.70;;
57023;SDS011;42916;54.346;18.562;2023-04-28T09:59:03;3.00;;;1.60;;
57023;SDS011;42916;54.346;18.562;2023-04-28T10:01:36;3.70;;;1.80;;
57023;SDS011;42916;54.346;18.562;2023-04-28T10:04:06;3.10;;;1.90;;
57023;SDS011;42916;54.346;18.562;2023-04-28T10:06:34;4.00;;;2.20;;
57023;SDS011;42916;54.346;18.562;2023-04-28T10:09:04;4.30;;;2.50;;
57023;SDS011;42916;54.346;18.562;2023-04-28T10:11:31;3.50;;;2.00;;
57023;SDS011;42916;54.346;18.562;2023-04-28T10:13:59;4.30;;;2.00;;
57023;SDS011;42916;54.346;18.562;2023-04-28T10:16:26;3.20;;;1.90;;
57023;SDS011;42916;54.346;18.562;2023-04-28T10:18:56;4.70;;;2.10;;
57023;SDS011;42916;54.346;18.562;2023-04-28T10:21:24;4.90;;;2.20;;
57023;SDS011;42916;54.346;18.562;2023-04-28T10:29:22;3.70;;;1.80;;
57023;SDS011;42916;54.346;18.562;2023-04-28T10:35:39;4.20;;;1.60;;
57023;SDS011;42916;54.346;18.562;2023-04-28T10:38:20;3.60;;;2.10;;
57023;SDS011;42916;54.346;18.562;2023-04-28T10:40:52;5.90;;;2.50;;
57023;SDS011;42916;54.346;18.562;2023-04-28T10:45:59;3.60;;;1.80;;
57023;SDS011;42916;54.346;18.562;2023-04-28T10:56:21;2.90;;;1.80;;
57023;SDS011;42916;54.346;18.562;2023-04-28T10:58:58;5.90;;;2.00;;
57023;SDS011;42916;54.346;18.562;2023-04-28T11:01:29;4.50;;;2.10;;
57023;SDS011;42916;54.346;18.562;2023-04-28T11:04:02;3.60;;;2.00;;
57023;SDS011;42916;54.346;18.562;2023-04-28T11:06:42;4.30;;;2.10;;
57023;SDS011;42916;54.346;18.562;2023-04-28T11:12:03;2.20;;;1.60;;
57023;SDS011;42916;54.346;18.562;2023-04-28T11:19:27;5.30;;;2.30;;
57023;SDS011;42916;54.346;18.562;2023-04-28T11:21:56;5.00;;;2.00;;
57023;SDS011;42916;54.346;18.562;2023-04-28T11:24:24;6.80;;;1.90;;
57023;SDS011;42916;54.346;18.562;2023-04-28T11:26:52;3.10;;;2.00;;
57023;SDS011;42916;54.346;18.562;2023-04-28T11:29:32;3.40;;;2.00;;
57023;SDS011;42916;54.346;18.562;2023-04-28T11:32:01;2.00;;;1.70;;
57023;SDS011;42916;54.346;18.562;2023-04-28T11:34:29;3.40;;;1.80;;
57023;SDS011;42916;54.346;18.562;2023-04-28T11:36:56;4.20;;;2.00;;
57023;SDS011;42916;54.346;18.562;2023-04-28T11:39:27;4.00;;;1.80;;
57023;SDS011;42916;54.346;18.562;2023-04-28T11:41:55;3.10;;;1.90;;
57023;SDS011;42916;54.346;18.562;2023-04-28T11:44:24;4.10;;;2.10;;
57023;SDS011;42916;54.346;18.562;2023-04-28T11:46:56;2.10;;;1.80;;
57023;SDS011;42916;54.346;18.562;2023-04-28T11:49:29;2.80;;;2.10;;
57023;SDS011;42916;54.346;18.562;2023-04-28T11:52:05;4.60;;;2.40;;
57023;SDS011;42916;54.346;18.562;2023-04-28T11:54:33;5.50;;;2.40;;
57023;SDS011;42916;54.346;18.562;2023-04-28T11:57:00;3.90;;;2.00;;
57023;SDS011;42916;54.346;18.562;2023-04-28T11:59:35;3.40;;;2.20;;
57023;SDS011;42916;54.346;18.562;2023-04-28T12:02:03;3.30;;;2.30;;
57023;SDS011;42916;54.346;18.562;2023-04-28T12:04:36;4.80;;;2.30;;
57023;SDS011;42916;54.346;18.562;2023-04-28T12:07:14;4.70;;;2.40;;
57023;SDS011;42916;54.346;18.562;2023-04-28T12:09:46;6.90;;;3.70;;
57023;SDS011;42916;54.346;18.562;2023-04-28T12:12:22;4.00;;;2.00;;
57023;SDS011;42916;54.346;18.562;2023-04-28T12:14:58;5.20;;;2.20;;
57023;SDS011;42916;54.346;18.562;2023-04-28T12:19:55;5.20;;;2.30;;
57023;SDS011;42916;54.346;18.562;2023-04-28T12:22:23;3.30;;;2.20;;
57023;SDS011;42916;54.346;18.562;2023-04-28T12:25:13;3.90;;;1.80;;
57023;SDS011;42916;54.346;18.562;2023-04-28T12:27:38;2.90;;;1.80;;
57023;SDS011;42916;54.346;18.562;2023-04-28T12:32:45;5.70;;;2.40;;
57023;SDS011;42916;54.346;18.562;2023-04-28T12:35:13;3.70;;;2.00;;
57023;SDS011;42916;54.346;18.562;2023-04-28T12:37:41;4.40;;;2.00;;
57023;SDS011;42916;54.346;18.562;2023-04-28T12:40:09;5.40;;;1.90;;
57023;SDS011;42916;54.346;18.562;2023-04-28T12:42:36;4.60;;;2.00;;
57023;SDS011;42916;54.346;18.562;2023-04-28T12:45:04;3.70;;;1.70;;
57023;SDS011;42916;54.346;18.562;2023-04-28T12:49:59;4.30;;;2.10;;
57023;SDS011;42916;54.346;18.562;2023-04-28T12:52:26;5.00;;;2.00;;
57023;SDS011;42916;54.346;18.562;2023-04-28T12:54:53;3.60;;;2.10;;
57023;SDS011;42916;54.346;18.562;2023-04-28T12:57:20;3.40;;;1.90;;
57023;SDS011;42916;54.346;18.562;2023-04-28T12:59:46;5.10;;;1.80;;
57023;SDS011;42916;54.346;18.562;2023-04-28T13:02:14;4.40;;;1.90;;
57023;SDS011;42916;54.346;18.562;2023-04-28T13:04:41;5.00;;;2.00;;
57023;SDS011;42916;54.346;18.562;2023-04-28T13:07:08;6.20;;;2.00;;
57023;SDS011;42916;54.346;18.562;2023-04-28T13:09:35;3.90;;;2.20;;
57023;SDS011;42916;54.346;18.562;2023-04-28T13:12:02;6.20;;;2.30;;
57023;SDS011;42916;54.346;18.562;2023-04-28T13:14:30;5.30;;;2.40;;
57023;SDS011;42916;54.346;18.562;2023-04-28T13:16:57;5.30;;;2.10;;
57023;SDS011;42916;54.346;18.562;2023-04-28T13:19:24;4.50;;;2.20;;
57023;SDS011;42916;54.346;18.562;2023-04-28T13:21:51;5.60;;;2.40;;
57023;SDS011;42916;54.346;18.562;2023-04-28T13:24:18;3.00;;;2.30;;
57023;SDS011;42916;54.346;18.562;2023-04-28T13:26:44;4.40;;;2.10;;
57023;SDS011;42916;54.346;18.562;2023-04-28T13:29:11;5.60;;;2.00;;
57023;SDS011;42916;54.346;18.562;2023-04-28T13:31:39;3.70;;;2.20;;
57023;SDS011;42916;54.346;18.562;2023-04-28T13:34:06;3.90;;;2.20;;
57023;SDS011;42916;54.346;18.562;2023-04-28T13:36:34;5.50;;;2.30;;
57023;SDS011;42916;54.346;18.562;2023-04-28T13:39:02;5.50;;;2.60;;
57023;SDS011;42916;54.346;18.562;2023-04-28T13:41:28;4.00;;;2.10;;
57023;SDS011;42916;54.346;18.562;2023-04-28T13:43:56;4.10;;;2.40;;
57023;SDS011;42916;54.346;18.562;2023-04-28T13:46:22;4.10;;;2.40;;
57023;SDS011;42916;54.346;18.562;2023-04-28T13:48:49;4.50;;;2.30;;
57023;SDS011;42916;54.346;18.562;2023-04-28T13:51:16;4.60;;;2.10;;
57023;SDS011;42916;54.346;18.562;2023-04-28T13:53:42;3.40;;;2.00;;
57023;SDS011;42916;54.346;18.562;2023-04-28T13:56:09;5.20;;;2.10;;
57023;SDS011;42916;54.346;18.562;2023-04-28T13:58:36;3.80;;;1.90;;
57023;SDS011;42916;54.346;18.562;2023-04-28T14:01:03;6.40;;;2.40;;
57023;SDS011;42916;54.346;18.562;2023-04-28T14:03:29;3.00;;;2.20;;
57023;SDS011;42916;54.346;18.562;2023-04-28T14:05:57;8.20;;;2.20;;
57023;SDS011;42916;54.346;18.562;2023-04-28T14:08:23;5.00;;;2.50;;
57023;SDS011;42916;54.346;18.562;2023-04-28T14:10:51;6.70;;;2.50;;
57023;SDS011;42916;54.346;18.562;2023-04-28T14:13:18;5.60;;;2.60;;
57023;SDS011;42916;54.346;18.562;2023-04-28T14:15:45;5.60;;;2.60;;
57023;SDS011;42916;54.346;18.562;2023-04-28T14:18:12;4.80;;;2.20;;
57023;SDS011;42916;54.346;18.562;2023-04-28T14:20:39;5.80;;;2.70;;
57023;SDS011;42916;54.346;18.562;2023-04-28T14:23:06;5.80;;;2.90;;
57023;SDS011;42916;54.346;18.562;2023-04-28T14:25:33;6.00;;;3.10;;
57023;SDS011;42916;54.346;18.562;2023-04-28T14:28:01;5.50;;;3.10;;
57023;SDS011;42916;54.346;18.562;2023-04-28T14:30:28;5.80;;;2.80;;
57023;SDS011;42916;54.346;18.562;2023-04-28T14:32:55;6.90;;;3.50;;
57023;SDS011;42916;54.346;18.562;2023-04-28T14:35:21;4.10;;;2.90;;
57023;SDS011;42916;54.346;18.562;2023-04-28T14:37:48;5.60;;;3.00;;
57023;SDS011;42916;54.346;18.562;2023-04-28T14:40:15;8.10;;;2.90;;
57023;SDS011;42916;54.346;18.562;2023-04-28T14:42:42;8.50;;;3.80;;
57023;SDS011;42916;54.346;18.562;2023-04-28T14:45:09;5.80;;;3.40;;
57023;SDS011;42916;54.346;18.562;2023-04-28T14:47:36;9.10;;;2.90;;
57023;SDS011;42916;54.346;18.562;2023-04-28T14:50:05;6.60;;;3.00;;
57023;SDS011;42916;54.346;18.562;2023-04-28T14:52:32;6.80;;;3.80;;
57023;SDS011;42916;54.346;18.562;2023-04-28T14:54:59;4.50;;;3.00;;
57023;SDS011;42916;54.346;18.562;2023-04-28T14:57:27;8.30;;;3.60;;
57023;SDS011;42916;54.346;18.562;2023-04-28T14:59:53;10.60;;;3.90;;
57023;SDS011;42916;54.346;18.562;2023-04-28T15:02:20;8.20;;;3.80;;
57023;SDS011;42916;54.346;18.562;2023-04-28T15:04:51;6.70;;;3.80;;
57023;SDS011;42916;54.346;18.562;2023-04-28T15:07:18;7.40;;;3.80;;
57023;SDS011;42916;54.346;18.562;2023-04-28T15:09:46;7.20;;;3.90;;
57023;SDS011;42916;54.346;18.562;2023-04-28T15:12:13;6.80;;;3.40;;
57023;SDS011;42916;54.346;18.562;2023-04-28T15:14:40;8.00;;;3.60;;